sensor_id;sensor_type;location;lat;lon;timestamp;pressure;altitude;pressure_sealevel;temperature;humidity
51178;BME280;37243;49.814;8.652;2022-08-21T00:00:39;100338.34;;;27.76;38.39
51178;BME280;37243;49.814;8.652;2022-08-21T00:03:09;100346.28;;;27.77;37.72
51178;BME280;37243;49.814;8.652;2022-08-21T00:05:40;100340.63;;;27.74;38.34
51178;BME280;37243;49.814;8.652;2022-08-21T00:08:09;100337.41;;;27.72;38.40
51178;BME280;37243;49.814;8.652;2022-08-21T00:10:39;100349.56;;;27.71;38.21
51178;BME280;37243;49.814;8.652;2022-08-21T00:13:08;100342.13;;;27.71;38.31
51178;BME280;37243;49.814;8.652;2022-08-21T00:15:41;100344.06;;;27.71;38.13
51178;BME280;37243;49.814;8.652;2022-08-21T00:18:10;100334.66;;;27.72;37.98
51178;BME280;37243;49.814;8.652;2022-08-21T00:20:40;100332.56;;;27.69;38.49
51178;BME280;37243;49.814;8.652;2022-08-21T00:23:09;100332.56;;;27.69;38.29
51178;BME280;37243;49.814;8.652;2022-08-21T00:25:39;100333.25;;;27.66;38.13
51178;BME280;37243;49.814;8.652;2022-08-21T00:28:07;100329.69;;;27.65;38.08
51178;BME280;37243;49.814;8.652;2022-08-21T00:30:39;100327.72;;;27.66;37.80
51178;BME280;37243;49.814;8.652;2022-08-21T00:33:08;100313.50;;;27.64;38.48
51178;BME280;37243;49.814;8.652;2022-08-21T00:35:41;100315.13;;;27.65;37.94
51178;BME280;37243;49.814;8.652;2022-08-21T00:38:09;100321.41;;;27.65;37.72
51178;BME280;37243;49.814;8.652;2022-08-21T00:40:41;100313.50;;;27.64;37.64
51178;BME280;37243;49.814;8.652;2022-08-21T00:43:12;100320.13;;;27.63;38.15
51178;BME280;37243;49.814;8.652;2022-08-21T00:45:44;100317.72;;;27.61;38.00
51178;BME280;37243;49.814;8.652;2022-08-21T00:48:12;100322.66;;;27.55;37.28
51178;BME280;37243;49.814;8.652;2022-08-21T00:50:44;100324.00;;;27.49;38.09
51178;BME280;37243;49.814;8.652;2022-08-21T00:53:14;100321.56;;;27.48;37.81
51178;BME280;37243;49.814;8.652;2022-08-21T00:55:43;100325.13;;;27.48;37.56
51178;BME280;37243;49.814;8.652;2022-08-21T00:58:13;100316.72;;;27.45;37.70
51178;BME280;37243;49.814;8.652;2022-08-21T01:00:50;100312.19;;;27.40;37.83
51178;BME280;37243;49.814;8.652;2022-08-21T01:03:21;100320.00;;;27.38;37.44
51178;BME280;37243;49.814;8.652;2022-08-21T01:05:51;100323.41;;;27.35;38.06
51178;BME280;37243;49.814;8.652;2022-08-21T01:08:21;100324.09;;;27.32;37.88
51178;BME280;37243;49.814;8.652;2022-08-21T01:10:50;100321.19;;;27.29;37.91
51178;BME280;37243;49.814;8.652;2022-08-21T01:13:21;100321.53;;;27.27;37.64
51178;BME280;37243;49.814;8.652;2022-08-21T01:15:55;100317.47;;;27.25;37.99
51178;BME280;37243;49.814;8.652;2022-08-21T01:18:25;100322.88;;;27.21;38.39
51178;BME280;37243;49.814;8.652;2022-08-21T01:21:11;100324.31;;;27.19;38.38
51178;BME280;37243;49.814;8.652;2022-08-21T01:23:42;100321.91;;;27.17;38.09
51178;BME280;37243;49.814;8.652;2022-08-21T01:26:14;100331.31;;;27.16;38.05
51178;BME280;37243;49.814;8.652;2022-08-21T01:28:47;100323.84;;;27.17;38.06
51178;BME280;37243;49.814;8.652;2022-08-21T01:31:19;100323.41;;;27.15;37.68
51178;BME280;37243;49.814;8.652;2022-08-21T01:33:50;100331.66;;;27.15;38.01
51178;BME280;37243;49.814;8.652;2022-08-21T01:36:22;100327.44;;;27.17;38.22
51178;BME280;37243;49.814;8.652;2022-08-21T01:38:53;100331.19;;;27.13;38.03
51178;BME280;37243;49.814;8.652;2022-08-21T01:41:21;100326.00;;;27.11;38.16
51178;BME280;37243;49.814;8.652;2022-08-21T01:43:50;100330.84;;;27.14;37.72
51178;BME280;37243;49.814;8.652;2022-08-21T01:46:18;100323.91;;;27.08;38.06
51178;BME280;37243;49.814;8.652;2022-08-21T01:48:47;100323.78;;;27.04;38.09
51178;BME280;37243;49.814;8.652;2022-08-21T01:51:16;100316.16;;;27.01;38.20
51178;BME280;37243;49.814;8.652;2022-08-21T01:53:47;100320.56;;;27.02;38.37
51178;BME280;37243;49.814;8.652;2022-08-21T01:56:16;100315.38;;;27.01;38.16
51178;BME280;37243;49.814;8.652;2022-08-21T01:58:46;100314.59;;;27.00;38.49
51178;BME280;37243;49.814;8.652;2022-08-21T02:01:15;100312.13;;;26.99;37.78
51178;BME280;37243;49.814;8.652;2022-08-21T02:03:43;100319.59;;;26.98;37.82
51178;BME280;37243;49.814;8.652;2022-08-21T02:06:14;100303.06;;;26.98;37.65
51178;BME280;37243;49.814;8.652;2022-08-21T02:08:43;100305.22;;;26.93;37.79
51178;BME280;37243;49.814;8.652;2022-08-21T02:11:14;100311.06;;;26.91;38.07
51178;BME280;37243;49.814;8.652;2022-08-21T02:13:43;100310.25;;;26.91;38.09
51178;BME280;37243;49.814;8.652;2022-08-21T02:16:13;100302.66;;;26.88;37.97
51178;BME280;37243;49.814;8.652;2022-08-21T02:18:42;100309.78;;;26.89;38.11
51178;BME280;37243;49.814;8.652;2022-08-21T02:21:10;100307.03;;;26.89;38.39
51178;BME280;37243;49.814;8.652;2022-08-21T02:23:39;100311.38;;;26.90;38.39
51178;BME280;37243;49.814;8.652;2022-08-21T02:26:08;100295.53;;;26.87;38.08
51178;BME280;37243;49.814;8.652;2022-08-21T02:28:39;100298.63;;;26.85;37.75
51178;BME280;37243;49.814;8.652;2022-08-21T02:31:07;100296.22;;;26.84;38.53
51178;BME280;37243;49.814;8.652;2022-08-21T02:33:36;100295.72;;;26.82;38.43
51178;BME280;37243;49.814;8.652;2022-08-21T02:36:05;100292.97;;;26.82;38.15
51178;BME280;37243;49.814;8.652;2022-08-21T02:38:34;100297.66;;;26.81;38.42
51178;BME280;37243;49.814;8.652;2022-08-21T02:41:04;100297.53;;;26.78;38.16
51178;BME280;37243;49.814;8.652;2022-08-21T02:43:33;100294.28;;;26.76;37.88
51178;BME280;37243;49.814;8.652;2022-08-21T02:46:06;100295.59;;;26.70;38.52
51178;BME280;37243;49.814;8.652;2022-08-21T02:48:35;100291.91;;;26.66;38.06
51178;BME280;37243;49.814;8.652;2022-08-21T02:51:10;100299.34;;;26.65;38.73
51178;BME280;37243;49.814;8.652;2022-08-21T02:53:39;100302.91;;;26.66;38.64
51178;BME280;37243;49.814;8.652;2022-08-21T02:56:10;100298.53;;;26.65;38.24
51178;BME280;37243;49.814;8.652;2022-08-21T02:58:41;100298.22;;;26.66;38.32
51178;BME280;37243;49.814;8.652;2022-08-21T03:01:12;100296.44;;;26.62;38.83
51178;BME280;37243;49.814;8.652;2022-08-21T03:03:43;100288.19;;;26.62;38.01
51178;BME280;37243;49.814;8.652;2022-08-21T03:06:14;100298.38;;;26.61;38.54
51178;BME280;37243;49.814;8.652;2022-08-21T03:08:43;100301.63;;;26.63;38.68
51178;BME280;37243;49.814;8.652;2022-08-21T03:11:13;100291.28;;;26.60;38.11
51178;BME280;37243;49.814;8.652;2022-08-21T03:13:42;100295.50;;;26.58;38.16
51178;BME280;37243;49.814;8.652;2022-08-21T03:16:13;100299.53;;;26.60;37.98
51178;BME280;37243;49.814;8.652;2022-08-21T03:18:42;100287.25;;;26.58;38.72
51178;BME280;37243;49.814;8.652;2022-08-21T03:21:10;100291.13;;;26.57;38.40
51178;BME280;37243;49.814;8.652;2022-08-21T03:23:39;100291.94;;;26.57;38.28
51178;BME280;37243;49.814;8.652;2022-08-21T03:26:07;100301.19;;;26.52;38.00
51178;BME280;37243;49.814;8.652;2022-08-21T03:28:36;100301.19;;;26.52;38.29
51178;BME280;37243;49.814;8.652;2022-08-21T03:31:04;100295.69;;;26.52;38.26
51178;BME280;37243;49.814;8.652;2022-08-21T03:33:36;100298.44;;;26.52;38.53
51178;BME280;37243;49.814;8.652;2022-08-21T03:36:07;100305.09;;;26.52;37.78
51178;BME280;37243;49.814;8.652;2022-08-21T03:38:37;100305.75;;;26.48;37.89
51178;BME280;37243;49.814;8.652;2022-08-21T03:41:06;100302.84;;;26.45;37.64
51178;BME280;37243;49.814;8.652;2022-08-21T03:43:35;100304.78;;;26.44;37.66
51178;BME280;37243;49.814;8.652;2022-08-21T03:46:05;100301.56;;;26.42;37.67
51178;BME280;37243;49.814;8.652;2022-08-21T03:48:38;100299.13;;;26.41;37.35
51178;BME280;37243;49.814;8.652;2022-08-21T03:51:07;100305.16;;;26.34;37.92
51178;BME280;37243;49.814;8.652;2022-08-21T03:53:36;100307.41;;;26.32;37.41
51178;BME280;37243;49.814;8.652;2022-08-21T03:56:05;100310.16;;;26.32;37.40
51178;BME280;37243;49.814;8.652;2022-08-21T03:58:34;100311.78;;;26.33;38.06
51178;BME280;37243;49.814;8.652;2022-08-21T04:01:05;100311.13;;;26.36;37.96
51178;BME280;37243;49.814;8.652;2022-08-21T04:03:37;100311.78;;;26.33;38.37
51178;BME280;37243;49.814;8.652;2022-08-21T04:06:06;100318.41;;;26.32;37.97
51178;BME280;37243;49.814;8.652;2022-08-21T04:08:34;100322.97;;;26.28;38.01
51178;BME280;37243;49.814;8.652;2022-08-21T04:11:03;100322.97;;;26.28;37.91
51178;BME280;37243;49.814;8.652;2022-08-21T04:13:35;100323.13;;;26.32;37.88
51178;BME280;37243;49.814;8.652;2022-08-21T04:16:04;100329.41;;;26.32;38.48
51178;BME280;37243;49.814;8.652;2022-08-21T04:18:32;100324.41;;;26.34;38.11
51178;BME280;37243;49.814;8.652;2022-08-21T04:21:05;100330.56;;;26.31;37.90
51178;BME280;37243;49.814;8.652;2022-08-21T04:23:35;100323.44;;;26.30;38.41
51178;BME280;37243;49.814;8.652;2022-08-21T04:26:03;100327.19;;;26.26;38.06
51178;BME280;37243;49.814;8.652;2022-08-21T04:28:32;100335.09;;;26.27;38.34
51178;BME280;37243;49.814;8.652;2022-08-21T04:31:00;100336.22;;;26.26;38.16
51178;BME280;37243;49.814;8.652;2022-08-21T04:33:28;100343.69;;;26.26;38.05
51178;BME280;37243;49.814;8.652;2022-08-21T04:35:56;100340.44;;;26.24;38.67
51178;BME280;37243;49.814;8.652;2022-08-21T04:38:27;100338.69;;;26.19;38.89
51178;BME280;37243;49.814;8.652;2022-08-21T04:40:56;100336.91;;;26.23;38.36
51178;BME280;37243;49.814;8.652;2022-08-21T04:43:25;100352.91;;;26.21;38.42
51178;BME280;37243;49.814;8.652;2022-08-21T04:45:53;100346.28;;;26.22;38.00
51178;BME280;37243;49.814;8.652;2022-08-21T04:48:22;100346.94;;;26.19;38.23
51178;BME280;37243;49.814;8.652;2022-08-21T04:50:54;100354.69;;;26.17;38.25
51178;BME280;37243;49.814;8.652;2022-08-21T04:53:31;100354.69;;;26.17;38.82
51178;BME280;37243;49.814;8.652;2022-08-21T04:56:06;100354.69;;;26.17;38.86
51178;BME280;37243;49.814;8.652;2022-08-21T04:58:36;100351.94;;;26.17;38.13
51178;BME280;37243;49.814;8.652;2022-08-21T05:01:08;100355.66;;;26.21;38.17
51178;BME280;37243;49.814;8.652;2022-08-21T05:03:39;100356.16;;;26.23;38.00
51178;BME280;37243;49.814;8.652;2022-08-21T05:06:10;100356.63;;;26.25;38.36
51178;BME280;37243;49.814;8.652;2022-08-21T05:08:43;100355.16;;;26.28;38.14
51178;BME280;37243;49.814;8.652;2022-08-21T05:11:14;100358.72;;;26.28;38.04
51178;BME280;37243;49.814;8.652;2022-08-21T05:13:42;100358.72;;;26.28;38.46
51178;BME280;37243;49.814;8.652;2022-08-21T05:16:11;100361.94;;;26.30;38.22
51178;BME280;37243;49.814;8.652;2022-08-21T05:18:39;100360.00;;;26.31;38.69
51178;BME280;37243;49.814;8.652;2022-08-21T05:21:08;100367.44;;;26.30;38.55
51178;BME280;37243;49.814;8.652;2022-08-21T05:23:36;100370.19;;;26.30;38.60
51178;BME280;37243;49.814;8.652;2022-08-21T05:26:07;100370.53;;;26.29;38.97
51178;BME280;37243;49.814;8.652;2022-08-21T05:28:36;100364.69;;;26.30;38.52
51178;BME280;37243;49.814;8.652;2022-08-21T05:31:04;100360.00;;;26.31;38.38
51178;BME280;37243;49.814;8.652;2022-08-21T05:33:33;100359.19;;;26.30;38.83
51178;BME280;37243;49.814;8.652;2022-08-21T05:36:02;100359.19;;;26.30;38.91
51178;BME280;37243;49.814;8.652;2022-08-21T05:38:30;100360.81;;;26.31;39.09
51178;BME280;37243;49.814;8.652;2022-08-21T05:40:59;100362.41;;;26.32;38.96
51178;BME280;37243;49.814;8.652;2022-08-21T05:43:29;100356.91;;;26.32;39.29
51178;BME280;37243;49.814;8.652;2022-08-21T05:46:01;100351.91;;;26.34;39.05
51178;BME280;37243;49.814;8.652;2022-08-21T05:48:29;100357.88;;;26.36;38.87
51178;BME280;37243;49.814;8.652;2022-08-21T05:51:04;100359.16;;;26.39;38.77
51178;BME280;37243;49.814;8.652;2022-08-21T05:53:34;100362.72;;;26.39;39.12
51178;BME280;37243;49.814;8.652;2022-08-21T05:56:03;100355.59;;;26.38;39.22
51178;BME280;37243;49.814;8.652;2022-08-21T05:58:35;100365.00;;;26.37;39.30
51178;BME280;37243;49.814;8.652;2022-08-21T06:01:04;100366.59;;;26.38;39.42
51178;BME280;37243;49.814;8.652;2022-08-21T06:03:36;100356.41;;;26.39;39.39
51178;BME280;37243;49.814;8.652;2022-08-21T06:06:05;100356.09;;;26.40;39.75
51178;BME280;37243;49.814;8.652;2022-08-21T06:08:34;100358.19;;;26.43;39.21
51178;BME280;37243;49.814;8.652;2022-08-21T06:11:04;100365.28;;;26.44;39.84
51178;BME280;37243;49.814;8.652;2022-08-21T06:13:36;100357.50;;;26.46;39.53
51178;BME280;37243;49.814;8.652;2022-08-21T06:16:08;100357.66;;;26.50;39.27
51178;BME280;37243;49.814;8.652;2022-08-21T06:18:37;100354.59;;;26.52;39.28
51178;BME280;37243;49.814;8.652;2022-08-21T06:21:06;100358.28;;;26.56;39.27
51178;BME280;37243;49.814;8.652;2022-08-21T06:23:37;100358.44;;;26.59;39.68
51178;BME280;37243;49.814;8.652;2022-08-21T06:26:06;100359.72;;;26.62;39.14
51178;BME280;37243;49.814;8.652;2022-08-21T06:28:38;100365.25;;;26.62;39.91
51178;BME280;37243;49.814;8.652;2022-08-21T06:31:11;100367.06;;;26.58;39.58
51178;BME280;37243;49.814;8.652;2022-08-21T06:33:39;100371.75;;;26.57;39.51
51178;BME280;37243;49.814;8.652;2022-08-21T06:36:08;100365.59;;;26.60;39.88
51178;BME280;37243;49.814;8.652;2022-08-21T06:38:37;100368.81;;;26.62;40.31
51178;BME280;37243;49.814;8.652;2022-08-21T06:41:06;100366.06;;;26.62;40.29
51178;BME280;37243;49.814;8.652;2022-08-21T06:43:38;100371.72;;;26.66;40.02
51178;BME280;37243;49.814;8.652;2022-08-21T06:46:06;100368.31;;;26.69;39.67
51178;BME280;37243;49.814;8.652;2022-08-21T06:48:35;100370.41;;;26.72;39.55
51178;BME280;37243;49.814;8.652;2022-08-21T06:51:04;100368.91;;;26.74;39.53
51178;BME280;37243;49.814;8.652;2022-08-21T06:53:32;100368.56;;;26.76;39.10
51178;BME280;37243;49.814;8.652;2022-08-21T06:56:01;100366.00;;;26.79;38.73
51178;BME280;37243;49.814;8.652;2022-08-21T06:58:30;100366.81;;;26.80;38.93
51178;BME280;37243;49.814;8.652;2022-08-21T07:01:01;100367.78;;;26.84;39.18
51178;BME280;37243;49.814;8.652;2022-08-21T07:03:31;100363.88;;;26.85;38.75
51178;BME280;37243;49.814;8.652;2022-08-21T07:06:01;100360.00;;;26.86;38.65
51178;BME280;37243;49.814;8.652;2022-08-21T07:08:29;100361.59;;;26.87;38.19
51178;BME280;37243;49.814;8.652;2022-08-21T07:11:00;100362.41;;;26.87;38.74
51178;BME280;37243;49.814;8.652;2022-08-21T07:13:29;100360.47;;;26.88;38.74
51178;BME280;37243;49.814;8.652;2022-08-21T07:15:58;100356.91;;;26.87;38.49
51178;BME280;37243;49.814;8.652;2022-08-21T07:18:29;100365.31;;;26.91;38.39
51178;BME280;37243;49.814;8.652;2022-08-21T07:20:57;100363.38;;;26.91;38.45
51178;BME280;37243;49.814;8.652;2022-08-21T07:23:28;100362.72;;;26.94;38.75
51178;BME280;37243;49.814;8.652;2022-08-21T07:25:57;100354.09;;;26.96;38.23
51178;BME280;37243;49.814;8.652;2022-08-21T07:28:26;100359.75;;;26.99;38.55
51178;BME280;37243;49.814;8.652;2022-08-21T07:30:56;100346.47;;;27.01;38.45
51178;BME280;37243;49.814;8.652;2022-08-21T07:33:29;100346.59;;;27.05;38.50
51178;BME280;37243;49.814;8.652;2022-08-21T07:35:58;100348.69;;;27.08;38.98
51178;BME280;37243;49.814;8.652;2022-08-21T07:38:27;100349.97;;;27.11;38.06
51178;BME280;37243;49.814;8.652;2022-08-21T07:40:56;100342.66;;;27.15;38.45
51178;BME280;37243;49.814;8.652;2022-08-21T07:43:26;100343.13;;;27.17;38.77
51178;BME280;37243;49.814;8.652;2022-08-21T07:45:54;100345.56;;;27.18;38.14
51178;BME280;37243;49.814;8.652;2022-08-21T07:48:23;100337.78;;;27.20;38.44
51178;BME280;37243;49.814;8.652;2022-08-21T07:50:54;100338.25;;;27.22;38.19
51178;BME280;37243;49.814;8.652;2022-08-21T07:53:23;100343.09;;;27.25;38.19
51178;BME280;37243;49.814;8.652;2022-08-21T07:55:51;100330.94;;;27.26;38.45
51178;BME280;37243;49.814;8.652;2022-08-21T07:58:19;100330.59;;;27.28;38.17
51178;BME280;37243;49.814;8.652;2022-08-21T08:00:47;100336.09;;;27.28;38.77
51178;BME280;37243;49.814;8.652;2022-08-21T08:03:16;100337.38;;;27.30;38.91
51178;BME280;37243;49.814;8.652;2022-08-21T08:05:44;100331.69;;;27.35;38.48
51178;BME280;37243;49.814;8.652;2022-08-21T08:08:15;100336.03;;;27.36;38.27
51178;BME280;37243;49.814;8.652;2022-08-21T08:10:45;100338.47;;;27.38;38.16
51178;BME280;37243;49.814;8.652;2022-08-21T08:13:14;100331.34;;;27.37;38.79
51178;BME280;37243;49.814;8.652;2022-08-21T08:15:43;100340.88;;;27.39;38.02
51178;BME280;37243;49.814;8.652;2022-08-21T08:18:11;100333.91;;;27.42;38.15
51178;BME280;37243;49.814;8.652;2022-08-21T08:20:39;100330.38;;;27.41;38.61
51178;BME280;37243;49.814;8.652;2022-08-21T08:23:09;100330.03;;;27.43;38.33
51178;BME280;37243;49.814;8.652;2022-08-21T08:25:41;100323.03;;;27.45;38.37
51178;BME280;37243;49.814;8.652;2022-08-21T08:28:09;100328.91;;;27.44;38.88
51178;BME280;37243;49.814;8.652;2022-08-21T08:30:38;100330.97;;;27.47;38.42
51178;BME280;37243;49.814;8.652;2022-08-21T08:33:06;100321.09;;;27.46;39.07
51178;BME280;37243;49.814;8.652;2022-08-21T08:35:35;100316.84;;;27.48;39.00
51178;BME280;37243;49.814;8.652;2022-08-21T08:38:05;100314.91;;;27.49;38.76
51178;BME280;37243;49.814;8.652;2022-08-21T08:40:41;100309.84;;;27.51;39.17
51178;BME280;37243;49.814;8.652;2022-08-21T08:43:12;100313.88;;;27.53;38.72
51178;BME280;37243;49.814;8.652;2022-08-21T08:45:45;100308.88;;;27.55;38.72
51178;BME280;37243;49.814;8.652;2022-08-21T08:48:31;100309.69;;;27.56;38.54
51178;BME280;37243;49.814;8.652;2022-08-21T08:51:02;100296.69;;;27.56;38.80
51178;BME280;37243;49.814;8.652;2022-08-21T08:53:33;100302.31;;;27.60;38.92
51178;BME280;37243;49.814;8.652;2022-08-21T08:56:07;100293.59;;;27.58;39.07
51178;BME280;37243;49.814;8.652;2022-08-21T08:58:40;100290.50;;;27.59;38.80
51178;BME280;37243;49.814;8.652;2022-08-21T09:01:16;100293.75;;;27.62;38.83
51178;BME280;37243;49.814;8.652;2022-08-21T09:03:46;100290.19;;;27.61;38.76
51178;BME280;37243;49.814;8.652;2022-08-21T09:06:34;100291.44;;;27.64;38.49
51178;BME280;37243;49.814;8.652;2022-08-21T09:09:15;100277.66;;;27.64;38.74
51178;BME280;37243;49.814;8.652;2022-08-21T09:11:52;100283.63;;;27.66;39.05
51178;BME280;37243;49.814;8.652;2022-08-21T09:14:32;100272.59;;;27.66;39.08
51178;BME280;37243;49.814;8.652;2022-08-21T09:17:16;100285.25;;;27.67;38.41
51178;BME280;37243;49.814;8.652;2022-08-21T09:19:57;100271.94;;;27.69;38.35
51178;BME280;37243;49.814;8.652;2022-08-21T09:22:46;100268.03;;;27.70;38.66
51178;BME280;37243;49.814;8.652;2022-08-21T09:25:21;100271.13;;;27.68;39.12
51178;BME280;37243;49.814;8.652;2022-08-21T09:27:53;100272.75;;;27.69;38.43
51178;BME280;37243;49.814;8.652;2022-08-21T09:30:26;100277.44;;;27.69;38.87
51178;BME280;37243;49.814;8.652;2022-08-21T09:32:56;100270.44;;;27.71;39.11
51178;BME280;37243;49.814;8.652;2022-08-21T09:35:25;100272.88;;;27.73;39.11
51178;BME280;37243;49.814;8.652;2022-08-21T09:37:56;100277.56;;;27.72;38.99
51178;BME280;37243;49.814;8.652;2022-08-21T09:40:33;100279.97;;;27.74;38.66
51178;BME280;37243;49.814;8.652;2022-08-21T09:43:06;100280.78;;;27.74;39.15
51178;BME280;37243;49.814;8.652;2022-08-21T09:45:44;100278.84;;;27.75;38.48
51178;BME280;37243;49.814;8.652;2022-08-21T09:48:17;100273.00;;;27.76;38.58
51178;BME280;37243;49.814;8.652;2022-08-21T09:50:47;100276.56;;;27.77;38.61
51178;BME280;37243;49.814;8.652;2022-08-21T09:53:17;100275.41;;;27.78;38.69
51178;BME280;37243;49.814;8.652;2022-08-21T09:55:49;100283.69;;;27.78;38.41
51178;BME280;37243;49.814;8.652;2022-08-21T09:58:36;100274.28;;;27.79;38.96
51178;BME280;37243;49.814;8.652;2022-08-21T10:01:11;100276.22;;;27.78;38.42
51178;BME280;37243;49.814;8.652;2022-08-21T10:03:40;100274.28;;;27.79;38.57
51178;BME280;37243;49.814;8.652;2022-08-21T10:06:09;100273.13;;;27.80;38.71
51178;BME280;37243;49.814;8.652;2022-08-21T10:08:41;100262.91;;;27.80;39.12
51178;BME280;37243;49.814;8.652;2022-08-21T10:11:11;100274.38;;;27.82;38.67
51178;BME280;37243;49.814;8.652;2022-08-21T10:13:50;100271.63;;;27.82;38.85
51178;BME280;37243;49.814;8.652;2022-08-21T10:16:28;100268.41;;;27.80;38.42
51178;BME280;37243;49.814;8.652;2022-08-21T10:19:07;100266.13;;;27.82;38.43
51178;BME280;37243;49.814;8.652;2022-08-21T10:21:46;100268.09;;;27.82;38.85
51178;BME280;37243;49.814;8.652;2022-08-21T10:24:24;100265.78;;;27.84;38.72
51178;BME280;37243;49.814;8.652;2022-08-21T10:27:02;100263.03;;;27.84;38.33
51178;BME280;37243;49.814;8.652;2022-08-21T10:29:45;100264.66;;;27.85;38.72
51178;BME280;37243;49.814;8.652;2022-08-21T10:32:25;100257.16;;;27.85;38.70
51178;BME280;37243;49.814;8.652;2022-08-21T10:35:02;100252.00;;;27.84;38.89
51178;BME280;37243;49.814;8.652;2022-08-21T10:37:45;100248.56;;;27.87;38.89
51178;BME280;37243;49.814;8.652;2022-08-21T10:40:22;100255.25;;;27.98;37.99
51178;BME280;37243;49.814;8.652;2022-08-21T10:43:02;100255.03;;;28.03;38.00
51178;BME280;37243;49.814;8.652;2022-08-21T10:45:49;100244.84;;;28.03;38.33
51178;BME280;37243;49.814;8.652;2022-08-21T10:48:37;100241.75;;;28.05;38.27
51178;BME280;37243;49.814;8.652;2022-08-21T10:51:12;100244.84;;;28.03;38.43
51178;BME280;37243;49.814;8.652;2022-08-21T10:53:59;100238.84;;;28.01;38.11
51178;BME280;37243;49.814;8.652;2022-08-21T10:56:34;100238.47;;;28.03;38.05
51178;BME280;37243;49.814;8.652;2022-08-21T10:59:18;100239.31;;;28.03;38.55
51178;BME280;37243;49.814;8.652;2022-08-21T11:01:54;100240.13;;;28.04;38.67
51178;BME280;37243;49.814;8.652;2022-08-21T11:04:31;100240.13;;;28.04;38.77
51178;BME280;37243;49.814;8.652;2022-08-21T11:07:07;100238.66;;;28.06;38.53
51178;BME280;37243;49.814;8.652;2022-08-21T11:09:40;100231.63;;;28.09;38.10
51178;BME280;37243;49.814;8.652;2022-08-21T11:12:19;100237.50;;;28.07;38.25
51178;BME280;37243;49.814;8.652;2022-08-21T11:14:54;100230.03;;;28.08;38.58
51178;BME280;37243;49.814;8.652;2022-08-21T11:17:31;100233.94;;;28.07;38.25
51178;BME280;37243;49.814;8.652;2022-08-21T11:20:06;100226.78;;;28.06;38.68
51178;BME280;37243;49.814;8.652;2022-08-21T11:22:41;100223.72;;;28.07;38.39
51178;BME280;37243;49.814;8.652;2022-08-21T11:25:17;100215.78;;;28.06;38.16
51178;BME280;37243;49.814;8.652;2022-08-21T11:27:52;100216.94;;;28.05;38.59
51178;BME280;37243;49.814;8.652;2022-08-21T11:30:24;100214.97;;;28.05;38.26
51178;BME280;37243;49.814;8.652;2022-08-21T11:33:10;100209.00;;;28.03;38.42
51178;BME280;37243;49.814;8.652;2022-08-21T11:35:46;100211.88;;;28.07;38.72
51178;BME280;37243;49.814;8.652;2022-08-21T11:38:24;100207.25;;;28.11;38.90
51178;BME280;37243;49.814;8.652;2022-08-21T11:41:09;100207.25;;;28.11;38.73
51178;BME280;37243;49.814;8.652;2022-08-21T11:43:42;100207.25;;;28.11;38.70
51178;BME280;37243;49.814;8.652;2022-08-21T11:46:17;100202.91;;;28.10;38.74
51178;BME280;37243;49.814;8.652;2022-08-21T11:49:01;100204.50;;;28.11;38.99
51178;BME280;37243;49.814;8.652;2022-08-21T11:51:33;100199.34;;;28.09;38.43
51178;BME280;37243;49.814;8.652;2022-08-21T11:54:21;100191.88;;;28.10;38.18
51178;BME280;37243;49.814;8.652;2022-08-21T11:56:55;100190.25;;;28.09;38.80
51178;BME280;37243;49.814;8.652;2022-08-21T11:59:32;100200.97;;;28.10;38.66
51178;BME280;37243;49.814;8.652;2022-08-21T12:02:10;100202.91;;;28.10;38.69
51178;BME280;37243;49.814;8.652;2022-08-21T12:04:48;100190.72;;;28.11;38.36
51178;BME280;37243;49.814;8.652;2022-08-21T12:07:31;100184.88;;;28.12;38.29
51178;BME280;37243;49.814;8.652;2022-08-21T12:10:00;100188.75;;;28.11;38.74
51178;BME280;37243;49.814;8.652;2022-08-21T12:12:31;100191.66;;;28.15;38.42
51178;BME280;37243;49.814;8.652;2022-08-21T12:15:24;100179.00;;;28.14;38.57
51178;BME280;37243;49.814;8.652;2022-08-21T12:17:58;100188.44;;;28.13;38.93
51178;BME280;37243;49.814;8.652;2022-08-21T12:20:41;100190.28;;;28.21;38.00
51178;BME280;37243;49.814;8.652;2022-08-21T12:23:18;100188.44;;;28.25;38.37
51178;BME280;37243;49.814;8.652;2022-08-21T12:26:00;100179.81;;;28.27;38.13
51178;BME280;37243;49.814;8.652;2022-08-21T12:28:30;100177.97;;;28.31;38.68
51178;BME280;37243;49.814;8.652;2022-08-21T12:30:59;100175.69;;;28.33;38.29
51178;BME280;37243;49.814;8.652;2022-08-21T12:33:31;100171.78;;;28.34;38.42
51178;BME280;37243;49.814;8.652;2022-08-21T12:36:09;100178.06;;;28.34;38.39
51178;BME280;37243;49.814;8.652;2022-08-21T12:38:43;100180.16;;;28.37;38.15
51178;BME280;37243;49.814;8.652;2022-08-21T12:41:18;100172.34;;;28.39;38.70
51178;BME280;37243;49.814;8.652;2022-08-21T12:43:52;100172.34;;;28.39;37.78
51178;BME280;37243;49.814;8.652;2022-08-21T12:46:30;100167.28;;;28.41;38.41
51178;BME280;37243;49.814;8.652;2022-08-21T12:49:03;100164.97;;;28.43;38.22
51178;BME280;37243;49.814;8.652;2022-08-21T12:51:50;100162.22;;;28.43;37.91
51178;BME280;37243;49.814;8.652;2022-08-21T12:54:27;100162.69;;;28.45;37.87
51178;BME280;37243;49.814;8.652;2022-08-21T12:56:58;100162.69;;;28.45;37.51
51178;BME280;37243;49.814;8.652;2022-08-21T12:59:27;100164.28;;;28.46;37.81
51178;BME280;37243;49.814;8.652;2022-08-21T13:01:58;100167.50;;;28.48;37.80
51178;BME280;37243;49.814;8.652;2022-08-21T13:04:35;100163.13;;;28.47;37.96
51178;BME280;37243;49.814;8.652;2022-08-21T13:07:10;100159.22;;;28.48;38.29
51178;BME280;37243;49.814;8.652;2022-08-21T13:09:44;100152.53;;;28.49;37.48
51178;BME280;37243;49.814;8.652;2022-08-21T13:12:16;100163.25;;;28.51;37.47
51178;BME280;37243;49.814;8.652;2022-08-21T13:14:46;100160.81;;;28.49;37.96